Time;durP1;ratioP1;P1;durP2;ratioP2;P2;SDS_P1;SDS_P2;PMS_P1;PMS_P2;Temp;Humidity;BMP_temperature;BMP_pressure;BME280_temperature;BME280_humidity;BME280_pressure;Samples;Min_cycle;Max_cycle;Signal;HPM_P1;HPM_P2
2020/12/05 00:02:26;;;;;;;3.00;1.00;;;12.20;96.70;;;;;;5036602;28;20037;-83
2020/12/05 00:04:54;;;;;;;4.78;1.10;;;12.10;96.70;;;;;;5049993;28;20036;-83
2020/12/05 00:07:21;;;;;;;3.78;1.08;;;12.10;96.70;;;;;;5051630;28;20044;-83
2020/12/05 00:09:48;;;;;;;3.72;0.80;;;12.10;96.70;;;;;;5036477;28;20091;-83
2020/12/05 00:12:16;;;;;;;6.15;1.00;;;12.10;96.70;;;;;;5038805;28;21864;-83
2020/12/05 00:14:54;;;;;;;4.65;0.80;;;12.10;96.70;;;;;;5052237;28;20045;-83
2020/12/05 00:17:21;;;;;;;3.75;0.98;;;12.10;96.70;;;;;;5045575;28;20486;-83
2020/12/05 00:19:49;;;;;;;3.08;0.93;;;12.10;96.70;;;;;;5039089;28;20055;-81
2020/12/05 00:22:18;;;;;;;2.55;0.70;;;12.10;96.70;;;;;;5035614;28;20037;-80
2020/12/05 00:24:45;;;;;;;3.40;1.10;;;12.10;96.70;;;;;;5056523;28;20590;-81
2020/12/05 00:27:12;;;;;;;4.28;1.10;;;12.10;96.70;;;;;;5037526;28;20116;-80
2020/12/05 00:29:39;;;;;;;4.57;1.15;;;12.00;96.70;;;;;;5038709;28;20037;-80
2020/12/05 00:32:07;;;;;;;3.05;0.73;;;12.00;96.70;;;;;;5055913;28;20110;-80
2020/12/05 00:34:34;;;;;;;2.50;0.85;;;12.00;96.70;;;;;;5038143;28;20065;-80
2020/12/05 00:37:02;;;;;;;3.50;0.90;;;12.00;96.70;;;;;;5063133;28;20033;-80
2020/12/05 00:39:30;;;;;;;2.72;0.80;;;11.90;96.70;;;;;;5017253;28;20180;-81
2020/12/05 00:41:57;;;;;;;3.42;0.85;;;11.90;96.70;;;;;;5016511;28;20152;-80
2020/12/05 00:44:25;;;;;;;3.25;0.82;;;11.90;96.70;;;;;;5038932;28;20048;-81
2020/12/05 00:46:52;;;;;;;2.47;0.70;;;11.80;96.70;;;;;;5037371;28;20045;-81
2020/12/05 00:49:19;;;;;;;2.13;0.70;;;11.80;96.70;;;;;;5026029;28;20041;-81
2020/12/05 00:51:47;;;;;;;2.00;0.65;;;11.80;96.70;;;;;;5036219;28;20041;-81
2020/12/05 00:54:14;;;;;;;2.45;1.00;;;11.80;96.70;;;;;;5041064;28;20044;-81
2020/12/05 00:56:43;;;;;;;2.25;0.75;;;11.80;96.70;;;;;;5021991;28;20514;-80
2020/12/05 00:59:10;;;;;;;4.95;0.98;;;11.80;96.70;;;;;;5025798;28;20045;-81
2020/12/05 01:01:37;;;;;;;1.77;0.77;;;11.80;96.70;;;;;;5045678;28;20413;-81
2020/12/05 01:04:04;;;;;;;5.75;1.25;;;11.70;96.70;;;;;;5022573;28;20041;-81
2020/12/05 01:06:31;;;;;;;4.53;1.15;;;11.70;96.70;;;;;;5039976;28;20190;-81
2020/12/05 01:08:58;;;;;;;1.85;0.82;;;11.70;96.70;;;;;;5023672;28;20064;-80
2020/12/05 01:11:25;;;;;;;4.10;1.27;;;11.70;96.70;;;;;;5025067;28;20453;-81
2020/12/05 01:13:54;;;;;;;2.28;0.77;;;11.80;96.70;;;;;;5039400;28;20041;-81
2020/12/05 01:16:23;;;;;;;4.15;0.93;;;11.70;96.70;;;;;;5048525;28;20040;-81
2020/12/05 01:18:50;;;;;;;2.83;0.63;;;11.70;96.70;;;;;;5024887;28;20046;-81
2020/12/05 01:21:18;;;;;;;3.53;0.80;;;11.70;96.70;;;;;;5035233;28;20051;-81
2020/12/05 01:23:45;;;;;;;3.25;0.50;;;11.70;96.70;;;;;;5008392;28;20041;-81
2020/12/05 01:26:12;;;;;;;3.70;0.80;;;11.70;96.70;;;;;;5023733;28;20045;-81
2020/12/05 01:28:39;;;;;;;4.20;0.65;;;11.70;96.70;;;;;;5025955;28;20041;-80
2020/12/05 01:31:11;;;;;;;3.05;0.65;;;11.70;96.70;;;;;;5021549;28;20033;-81
2020/12/05 01:33:38;;;;;;;3.30;0.80;;;11.80;96.70;;;;;;5037309;28;20156;-80
2020/12/05 01:36:05;;;;;;;2.00;1.25;;;11.80;96.70;;;;;;5020812;28;20045;-81
2020/12/05 01:38:33;;;;;;;4.40;0.77;;;11.80;96.70;;;;;;5026727;28;20098;-81
2020/12/05 01:41:00;;;;;;;2.72;1.15;;;11.80;96.70;;;;;;5022082;28;20061;-80
2020/12/05 01:43:29;;;;;;;2.78;0.70;;;11.80;96.70;;;;;;5032895;28;20069;-81
2020/12/05 01:45:59;;;;;;;1.75;0.63;;;11.80;96.70;;;;;;5024479;28;20052;-81
2020/12/05 01:48:27;;;;;;;3.78;0.63;;;11.80;96.70;;;;;;5018885;28;20041;-80
2020/12/05 01:50:55;;;;;;;4.30;1.17;;;11.90;96.70;;;;;;5026414;28;20064;-81
2020/12/05 01:53:22;;;;;;;4.72;0.70;;;11.90;96.70;;;;;;5019073;28;20060;-81
2020/12/05 01:55:50;;;;;;;5.30;0.60;;;11.90;96.70;;;;;;5052152;28;20045;-81
2020/12/05 01:58:18;;;;;;;3.22;0.50;;;12.00;96.70;;;;;;5006274;28;20053;-81
2020/12/05 02:00:46;;;;;;;3.72;0.38;;;12.00;96.70;;;;;;5042172;28;20490;-81
2020/12/05 02:03:14;;;;;;;3.53;0.50;;;12.00;96.70;;;;;;5027401;28;20141;-81
2020/12/05 02:05:56;;;;;;;2.38;0.70;;;12.00;96.70;;;;;;5015110;28;20041;-81
2020/12/05 02:08:29;;;;;;;1.95;0.35;;;11.90;96.70;;;;;;5039135;28;20044;-82
2020/12/05 02:11:00;;;;;;;2.08;0.38;;;11.90;96.70;;;;;;5017312;28;20488;-82
2020/12/05 02:13:36;;;;;;;1.77;0.30;;;11.80;96.70;;;;;;5023187;28;20029;-81
2020/12/05 02:16:05;;;;;;;2.35;0.60;;;11.80;96.70;;;;;;5026273;28;20048;-81
2020/12/05 02:18:35;;;;;;;4.68;0.50;;;11.80;96.70;;;;;;5012162;28;20464;-81
2020/12/05 02:21:05;;;;;;;2.63;0.40;;;11.70;96.70;;;;;;5022217;28;20060;-81
2020/12/05 02:23:33;;;;;;;2.03;0.52;;;11.70;96.70;;;;;;5039870;28;20116;-81
2020/12/05 02:26:05;;;;;;;3.10;0.85;;;11.70;96.70;;;;;;5023821;28;20087;-81
2020/12/05 02:28:34;;;;;;;2.95;0.57;;;11.70;96.70;;;;;;5034086;28;20037;-82
2020/12/05 02:31:03;;;;;;;2.10;0.40;;;11.70;96.70;;;;;;5006621;28;20045;-81
2020/12/05 02:33:30;;;;;;;3.00;0.40;;;11.60;96.70;;;;;;5039318;28;20535;-82
2020/12/05 02:35:58;;;;;;;2.38;0.50;;;11.60;96.70;;;;;;5019566;28;20067;-81
2020/12/05 02:38:32;;;;;;;4.05;0.43;;;11.60;96.70;;;;;;5038575;28;20130;-82
2020/12/05 02:41:00;;;;;;;1.60;0.60;;;11.60;96.70;;;;;;5017794;28;20044;-81
2020/12/05 02:43:28;;;;;;;2.15;0.40;;;11.60;96.70;;;;;;5001814;28;20044;-81
2020/12/05 02:45:55;;;;;;;3.00;0.57;;;11.60;96.70;;;;;;5024533;28;20592;-81
2020/12/05 02:48:22;;;;;;;1.42;0.40;;;11.60;96.70;;;;;;5039926;28;20834;-81
2020/12/05 02:50:50;;;;;;;3.47;0.55;;;11.60;96.70;;;;;;5018318;28;20099;-81
2020/12/05 02:53:17;;;;;;;2.85;0.80;;;11.60;96.70;;;;;;5032807;28;20036;-81
2020/12/05 02:55:44;;;;;;;2.67;0.95;;;11.50;96.70;;;;;;5050829;28;20045;-81
2020/12/05 02:58:12;;;;;;;2.35;1.30;;;11.50;96.70;;;;;;5021744;28;20036;-82
2020/12/05 03:00:39;;;;;;;2.17;0.70;;;11.50;96.70;;;;;;5026835;28;20063;-81
2020/12/05 03:03:06;;;;;;;3.70;0.80;;;11.50;96.70;;;;;;5023976;28;20040;-81
2020/12/05 03:05:33;;;;;;;1.15;0.60;;;11.40;96.70;;;;;;5022076;28;20036;-82
2020/12/05 03:08:00;;;;;;;2.42;0.70;;;11.40;96.70;;;;;;5026570;28;20037;-82
2020/12/05 03:10:28;;;;;;;4.57;1.10;;;11.40;96.70;;;;;;5035988;28;20566;-82
2020/12/05 03:12:55;;;;;;;1.20;0.35;;;11.40;96.70;;;;;;5019538;28;20144;-81
2020/12/05 03:28:43;;;;;;;1.25;0.28;;;11.40;96.70;;;;;;5098308;27;20449;-84
2020/12/05 03:31:20;;;;;;;2.08;0.35;;;11.50;96.70;;;;;;5078930;28;20045;-84
2020/12/05 03:33:47;;;;;;;2.80;0.50;;;11.50;96.70;;;;;;5047715;28;20040;-84
2020/12/05 03:36:17;;;;;;;1.30;0.43;;;11.40;96.70;;;;;;5059249;28;20051;-84
2020/12/05 03:38:46;;;;;;;4.45;1.10;;;11.40;96.70;;;;;;5064047;28;20041;-84
2020/12/05 03:41:14;;;;;;;2.30;0.80;;;11.40;96.70;;;;;;5061313;28;20076;-84
2020/12/05 03:43:42;;;;;;;2.45;0.70;;;11.40;96.70;;;;;;5062744;28;20102;-84
2020/12/05 03:46:09;;;;;;;2.70;0.73;;;11.40;96.70;;;;;;5077069;28;20040;-84
2020/12/05 03:48:37;;;;;;;1.70;0.60;;;11.40;96.70;;;;;;5092571;28;20542;-84
2020/12/05 03:51:04;;;;;;;1.48;0.63;;;11.40;96.70;;;;;;5062057;28;20040;-84
2020/12/05 03:53:31;;;;;;;2.47;0.70;;;11.40;96.70;;;;;;5058958;28;20091;-84
2020/12/05 03:55:58;;;;;;;3.33;0.70;;;11.40;96.70;;;;;;5063567;28;20040;-84
2020/12/05 03:58:26;;;;;;;2.97;0.68;;;11.40;96.70;;;;;;5043355;28;20121;-84
2020/12/05 04:00:55;;;;;;;1.88;0.70;;;11.40;96.70;;;;;;5076143;28;20041;-84
2020/12/05 04:03:23;;;;;;;2.25;0.52;;;11.40;96.70;;;;;;5062815;28;20071;-84
2020/12/05 04:05:50;;;;;;;0.93;0.50;;;11.40;96.70;;;;;;5061964;28;20064;-84
2020/12/05 04:08:17;;;;;;;2.15;0.50;;;11.40;96.70;;;;;;5061770;28;20129;-84
2020/12/05 04:10:45;;;;;;;3.65;0.70;;;11.40;96.70;;;;;;5061280;28;20033;-84
2020/12/05 04:13:12;;;;;;;3.33;0.70;;;11.30;96.70;;;;;;5078984;28;20032;-84
2020/12/05 04:15:39;;;;;;;3.08;0.60;;;11.30;96.70;;;;;;5046893;28;20063;-84
2020/12/05 04:18:07;;;;;;;1.50;0.40;;;11.20;96.70;;;;;;5060547;28;20068;-84
2020/12/05 04:20:35;;;;;;;2.88;0.63;;;11.20;96.70;;;;;;5059822;28;20036;-84
2020/12/05 04:23:03;;;;;;;1.85;0.60;;;11.20;96.70;;;;;;5061687;28;20072;-84
2020/12/05 04:25:30;;;;;;;5.00;1.15;;;11.10;96.70;;;;;;5074024;28;20040;-81
2020/12/05 04:27:57;;;;;;;3.45;1.17;;;11.10;96.70;;;;;;5051285;28;20137;-81
2020/12/05 04:30:25;;;;;;;2.08;0.95;;;11.10;96.70;;;;;;5043844;28;20119;-81
2020/12/05 04:32:52;;;;;;;2.97;0.85;;;11.10;96.70;;;;;;5075552;28;20049;-81
2020/12/05 04:35:20;;;;;;;4.18;1.15;;;11.10;96.70;;;;;;5041941;28;20041;-82
2020/12/05 04:37:47;;;;;;;2.00;0.73;;;11.00;96.70;;;;;;5027025;28;20049;-82
2020/12/05 04:40:15;;;;;;;2.78;0.60;;;11.00;96.70;;;;;;5028534;28;20565;-82
2020/12/05 04:42:44;;;;;;;3.45;0.80;;;11.00;96.70;;;;;;5062837;28;20044;-82
2020/12/05 04:45:14;;;;;;;4.05;0.70;;;11.00;96.70;;;;;;5043929;28;20562;-83
2020/12/05 04:47:43;;;;;;;2.78;0.70;;;11.10;96.70;;;;;;5073504;28;20037;-83
2020/12/05 04:50:12;;;;;;;1.55;0.60;;;11.10;96.70;;;;;;5043965;28;20067;-82
2020/12/05 04:52:48;;;;;;;2.20;0.68;;;11.10;96.70;;;;;;5059834;28;20068;-82
2020/12/05 04:55:16;;;;;;;;;;;11.10;96.70;;;;;;5047130;28;20049;-83
2020/12/05 04:57:46;;;;;;;1.40;0.52;;;11.10;96.70;;;;;;5043720;28;19929;-83
2020/12/05 05:00:14;;;;;;;2.00;0.52;;;11.10;96.70;;;;;;5059140;28;20046;-83
2020/12/05 05:02:43;;;;;;;4.82;0.73;;;11.20;96.70;;;;;;5059802;28;20068;-83
2020/12/05 05:05:12;;;;;;;3.00;0.80;;;11.20;96.70;;;;;;5043627;28;20517;-83
2020/12/05 05:07:49;;;;;;;3.00;0.95;;;11.20;96.70;;;;;;5026126;28;20100;-83
2020/12/05 05:10:21;;;;;;;3.70;0.60;;;11.20;96.70;;;;;;5059508;28;20075;-83
2020/12/05 05:12:49;;;;;;;1.20;0.50;;;11.10;96.70;;;;;;5060246;28;20048;-84
2020/12/05 05:15:20;;;;;;;1.90;0.65;;;11.10;96.70;;;;;;5042968;28;20099;-83
2020/12/05 05:17:49;;;;;;;1.67;0.52;;;11.10;96.70;;;;;;5076583;28;20513;-84
2020/12/05 05:20:20;;;;;;;2.75;0.60;;;11.10;96.70;;;;;;5026921;28;20052;-83
2020/12/05 05:22:52;;;;;;;2.53;0.85;;;11.10;96.70;;;;;;5042236;28;20052;-84
2020/12/05 05:25:21;;;;;;;3.03;0.85;;;11.10;96.70;;;;;;5059709;28;20476;-83
2020/12/05 05:28:03;;;;;;;2.45;0.80;;;11.10;96.70;;;;;;5058472;28;20059;-83
2020/12/05 05:30:30;;;;;;;3.38;1.60;;;11.10;96.70;;;;;;5059144;28;20126;-82
2020/12/05 05:33:08;;;;;;;4.63;1.05;;;11.10;96.70;;;;;;5024761;28;20037;-83
2020/12/05 05:35:37;;;;;;;4.53;1.27;;;11.10;96.70;;;;;;5058343;28;20040;-83
2020/12/05 05:38:06;;;;;;;2.72;0.90;;;11.10;96.70;;;;;;5040650;28;20040;-83
2020/12/05 05:40:33;;;;;;;3.38;1.02;;;11.10;96.70;;;;;;5044398;28;20507;-83
2020/12/05 05:43:15;;;;;;;1.95;0.80;;;11.20;96.70;;;;;;5026485;28;20037;-83
2020/12/05 05:45:46;;;;;;;4.40;1.10;;;11.20;96.70;;;;;;5034881;28;20136;-83
2020/12/05 05:48:14;;;;;;;2.20;1.00;;;11.20;96.70;;;;;;5025981;28;20033;-82
2020/12/05 05:50:41;;;;;;;2.78;0.88;;;11.20;96.70;;;;;;5074561;28;20037;-83
2020/12/05 05:53:20;;;;;;;3.97;1.20;;;11.20;96.70;;;;;;5078241;28;20048;-83
2020/12/05 05:55:49;;;;;;;2.75;1.10;;;11.20;96.70;;;;;;5039522;28;20037;-83
2020/12/05 05:58:18;;;;;;;2.95;1.33;;;11.20;96.70;;;;;;5025140;28;20049;-83
2020/12/05 06:00:47;;;;;;;3.72;1.50;;;11.20;96.70;;;;;;5046626;28;20045;-83
2020/12/05 06:03:17;;;;;;;3.63;1.23;;;11.20;96.70;;;;;;5074609;28;20041;-83
2020/12/05 06:05:47;;;;;;;1.38;0.77;;;11.20;96.70;;;;;;5043785;28;20048;-82
2020/12/05 06:08:18;;;;;;;2.33;0.88;;;11.20;96.70;;;;;;5057223;28;20580;-84
2020/12/05 06:10:53;;;;;;;4.10;1.50;;;11.20;96.70;;;;;;5042187;28;20147;-83
2020/12/05 06:13:24;;;;;;;2.42;1.10;;;11.20;96.70;;;;;;5076908;28;20049;-83
2020/12/05 06:15:51;;;;;;;3.33;1.00;;;11.10;96.70;;;;;;5057787;28;20055;-83
2020/12/05 06:18:20;;;;;;;3.40;1.05;;;11.10;96.70;;;;;;5053456;28;20423;-83
2020/12/05 06:20:48;;;;;;;2.22;0.85;;;11.10;96.70;;;;;;5043284;28;20029;-83
2020/12/05 06:23:28;;;;;;;2.55;0.88;;;11.10;96.70;;;;;;5025995;28;20036;-83
2020/12/05 06:26:01;;;;;;;2.63;0.90;;;11.00;96.70;;;;;;5042821;28;20041;-83
2020/12/05 06:28:28;;;;;;;3.42;0.80;;;11.10;96.70;;;;;;5019005;28;20064;-83
2020/12/05 06:30:56;;;;;;;2.17;0.90;;;11.10;96.70;;;;;;5022952;28;20295;-83
2020/12/05 06:33:38;;;;;;;1.77;0.93;;;11.10;96.70;;;;;;5024594;28;20828;-83
2020/12/05 06:36:35;;;;;;;2.33;1.00;;;11.10;96.70;;;;;;5024696;28;20804;-83
2020/12/05 06:39:19;;;;;;;1.50;0.63;;;11.10;96.70;;;;;;5022093;28;20099;-83
2020/12/05 06:41:49;;;;;;;1.95;0.82;;;11.10;96.70;;;;;;5058592;28;20284;-83
2020/12/05 06:44:18;;;;;;;1.38;0.60;;;11.00;96.70;;;;;;5007801;28;20416;-83
2020/12/05 06:46:48;;;;;;;2.50;0.80;;;11.00;96.70;;;;;;5024224;28;20041;-83
2020/12/05 06:49:45;;;;;;;1.38;0.70;;;11.00;96.70;;;;;;5008593;28;20036;-83
2020/12/05 06:52:30;;;;;;;1.35;0.47;;;10.90;96.70;;;;;;5027077;28;20045;-83
2020/12/05 06:55:04;;;;;;;1.98;0.50;;;10.90;96.70;;;;;;5040016;28;20072;-83
2020/12/05 06:57:33;;;;;;;2.38;0.60;;;10.90;96.70;;;;;;5041146;28;20049;-83
2020/12/05 07:00:12;;;;;;;2.20;0.73;;;10.90;96.70;;;;;;5007175;28;20046;-83
2020/12/05 07:02:47;;;;;;;2.05;0.70;;;10.90;96.70;;;;;;5020859;28;20096;-82
2020/12/05 07:05:26;;;;;;;1.88;0.70;;;10.90;96.70;;;;;;5040543;28;20809;-83
2020/12/05 07:07:54;;;;;;;2.40;0.70;;;10.90;96.70;;;;;;5006033;28;20453;-84
2020/12/05 07:10:38;;;;;;;2.42;0.75;;;10.90;96.70;;;;;;5021571;28;20042;-83
2020/12/05 07:13:13;;;;;;;3.90;0.93;;;10.90;96.70;;;;;;5019731;28;20647;-83
2020/12/05 07:15:41;;;;;;;1.08;0.60;;;10.90;96.70;;;;;;5005913;28;20140;-83
2020/12/05 07:18:09;;;;;;;5.82;2.40;;;10.90;96.70;;;;;;5024511;28;20154;-83
2020/12/05 07:20:37;;;;;;;5.22;2.70;;;10.90;96.70;;;;;;5023041;28;20819;-83
2020/12/05 07:23:04;;;;;;;5.63;2.15;;;10.90;96.70;;;;;;5008838;28;20037;-84
2020/12/05 07:25:33;;;;;;;2.97;0.90;;;10.90;96.70;;;;;;5037475;28;20057;-84
2020/12/05 07:28:01;;;;;;;3.30;1.00;;;10.90;96.70;;;;;;5023978;28;20052;-84
2020/12/05 07:30:28;;;;;;;1.98;1.20;;;10.90;96.70;;;;;;5023119;28;20582;-84
2020/12/05 07:32:55;;;;;;;2.17;0.70;;;11.00;96.70;;;;;;5027238;28;20032;-84
2020/12/05 07:35:23;;;;;;;3.20;0.70;;;11.00;96.70;;;;;;5040864;28;20072;-84
2020/12/05 07:37:50;;;;;;;3.03;0.75;;;11.00;96.70;;;;;;5023714;28;20072;-84
2020/12/05 07:40:26;;;;;;;3.30;0.68;;;11.00;96.70;;;;;;5020945;28;20065;-84
2020/12/05 07:42:56;;;;;;;2.80;0.75;;;11.10;96.70;;;;;;5023445;28;20398;-85
2020/12/05 07:45:28;;;;;;;3.35;0.70;;;11.10;96.70;;;;;;5039225;28;20076;-85
2020/12/05 07:47:55;;;;;;;3.28;1.13;;;11.10;96.70;;;;;;5036839;28;20041;-85
2020/12/05 07:50:30;;;;;;;1.65;0.90;;;11.10;96.70;;;;;;5022268;28;20399;-81
2020/12/05 07:52:58;;;;;;;3.80;1.58;;;11.10;96.70;;;;;;5021125;28;20045;-84
2020/12/05 07:55:29;;;;;;;1.63;0.80;;;11.20;96.70;;;;;;5030143;28;20093;-85
2020/12/05 07:57:58;;;;;;;3.58;0.68;;;11.20;96.70;;;;;;5017276;28;20096;-83
2020/12/05 08:00:31;;;;;;;1.60;0.52;;;11.10;96.70;;;;;;5023095;28;20040;-79
2020/12/05 08:03:21;;;;;;;1.45;0.57;;;11.20;96.70;;;;;;5040128;28;20052;-84
2020/12/05 08:05:55;;;;;;;2.50;0.43;;;11.20;96.70;;;;;;5023578;28;20745;-85
2020/12/05 08:08:28;;;;;;;2.78;0.40;;;11.20;96.70;;;;;;5021524;28;20060;-85
2020/12/05 08:11:01;;;;;;;1.88;0.55;;;11.20;96.70;;;;;;5026281;28;20037;-85
2020/12/05 08:13:30;;;;;;;1.25;0.70;;;11.20;96.70;;;;;;5024745;28;20132;-84
2020/12/05 08:16:02;;;;;;;1.67;0.65;;;11.20;96.70;;;;;;5040955;28;20068;-84
2020/12/05 08:18:31;;;;;;;1.52;0.70;;;11.30;96.70;;;;;;5028631;28;20047;-84
2020/12/05 08:21:00;;;;;;;1.13;0.63;;;11.30;96.70;;;;;;5040063;28;20099;-84
2020/12/05 08:23:31;;;;;;;1.90;0.82;;;11.30;96.70;;;;;;5020970;28;20089;-84
2020/12/05 08:26:00;;;;;;;116.03;78.80;;;11.30;96.70;;;;;;5026170;28;20731;-87
2020/12/05 08:28:35;;;;;;;69.90;52.17;;;11.30;96.70;;;;;;5021688;28;20527;-81
2020/12/05 08:31:04;;;;;;;5.57;4.32;;;11.40;96.70;;;;;;5036673;28;20053;-82
2020/12/05 08:33:39;;;;;;;4.25;1.95;;;11.40;96.70;;;;;;5022343;28;20495;-83
2020/12/05 08:36:16;;;;;;;4.85;3.00;;;11.50;96.70;;;;;;5006534;28;20061;-81
2020/12/05 08:38:44;;;;;;;6.03;3.60;;;11.50;96.70;;;;;;5054665;28;20534;-81
2020/12/05 08:41:11;;;;;;;6.47;3.15;;;11.60;96.70;;;;;;5022325;28;20144;-81
2020/12/05 08:43:40;;;;;;;4.30;1.98;;;11.60;96.70;;;;;;5023067;28;20402;-82
2020/12/05 08:46:22;;;;;;;3.35;1.88;;;11.70;96.70;;;;;;5023212;28;20062;-82
2020/12/05 08:48:51;;;;;;;3.00;1.27;;;11.70;96.70;;;;;;5022821;28;20143;-83
2020/12/05 08:51:26;;;;;;;3.15;1.48;;;11.70;96.70;;;;;;5022298;28;20057;-83
2020/12/05 08:54:06;;;;;;;2.63;1.25;;;11.70;96.70;;;;;;5022429;28;20029;-83
2020/12/05 08:56:35;;;;;;;2.28;0.82;;;11.70;96.70;;;;;;5005645;28;20077;-84
2020/12/05 08:59:03;;;;;;;3.40;1.20;;;11.80;96.70;;;;;;5022003;28;20034;-83
2020/12/05 09:01:37;;;;;;;3.85;1.58;;;11.90;96.70;;;;;;5021989;28;20606;-83
2020/12/05 09:04:04;;;;;;;2.58;1.30;;;12.00;96.70;;;;;;5001902;28;21203;-82
2020/12/05 09:06:32;;;;;;;5.20;1.77;;;12.10;96.70;;;;;;5021661;28;20064;-83
2020/12/05 09:09:00;;;;;;;3.95;1.60;;;12.20;96.70;;;;;;5021970;28;20073;-82
2020/12/05 09:11:27;;;;;;;2.75;1.55;;;12.40;96.70;;;;;;5022253;28;20057;-82
2020/12/05 09:13:55;;;;;;;4.55;1.17;;;12.40;96.70;;;;;;5021696;28;20666;-80
2020/12/05 09:16:33;;;;;;;2.28;1.27;;;12.50;96.70;;;;;;5021777;28;20621;-82
2020/12/05 09:19:01;;;;;;;4.30;1.80;;;12.60;96.70;;;;;;5005613;28;20049;-83
2020/12/05 09:21:35;;;;;;;3.78;1.13;;;12.60;96.70;;;;;;5023031;28;20415;-85
2020/12/05 09:24:05;;;;;;;3.15;1.10;;;12.60;96.70;;;;;;5035530;28;20109;-81
2020/12/05 09:26:33;;;;;;;2.83;1.42;;;12.60;96.70;;;;;;5043720;28;20068;-83
2020/12/05 09:29:01;;;;;;;2.90;1.15;;;12.60;96.70;;;;;;5077127;28;20589;-86
2020/12/05 09:31:29;;;;;;;4.13;1.40;;;12.70;96.70;;;;;;5043794;28;20045;-82
2020/12/05 09:33:57;;;;;;;4.55;1.50;;;12.70;96.70;;;;;;5044215;28;20143;-83
2020/12/05 09:36:25;;;;;;;6.13;1.90;;;12.70;96.70;;;;;;5044196;28;20059;-87
2020/12/05 09:38:52;;;;;;;5.00;1.58;;;12.70;96.70;;;;;;5044861;28;20086;-86
2020/12/05 09:41:19;;;;;;;49.75;39.10;;;12.70;96.70;;;;;;5062267;28;20105;-84
2020/12/05 09:43:47;;;;;;;17.02;10.95;;;12.70;96.70;;;;;;5045867;28;20063;-84
2020/12/05 09:46:14;;;;;;;7.03;3.40;;;12.80;96.70;;;;;;5027960;28;20374;-86
2020/12/05 09:48:42;;;;;;;7.13;1.88;;;12.80;96.70;;;;;;5029775;28;20070;-87
2020/12/05 09:51:10;;;;;;;7.53;2.25;;;12.80;96.70;;;;;;5045289;28;20051;-88
2020/12/05 09:53:38;;;;;;;6.28;2.40;;;12.80;96.70;;;;;;5047585;28;20044;-80
2020/12/05 09:56:05;;;;;;;7.18;2.03;;;12.80;96.70;;;;;;5029756;28;20770;-89
2020/12/05 09:58:33;;;;;;;4.60;1.67;;;12.80;96.70;;;;;;5066605;28;20071;-88
2020/12/05 10:01:07;;;;;;;5.55;1.95;;;12.80;96.70;;;;;;5066646;28;20123;-83
2020/12/05 10:03:35;;;;;;;3.70;1.30;;;12.80;96.70;;;;;;5080380;28;20174;-81
2020/12/05 10:06:02;;;;;;;5.25;1.83;;;12.80;96.70;;;;;;5042840;28;20044;-81
2020/12/05 10:08:31;;;;;;;4.63;1.50;;;12.80;96.70;;;;;;5044728;28;20573;-82
2020/12/05 10:10:58;;;;;;;5.82;1.80;;;12.70;96.70;;;;;;5042524;28;20081;-82
2020/12/05 10:13:26;;;;;;;3.05;1.70;;;12.80;96.70;;;;;;5045675;28;20036;-82
2020/12/05 10:15:53;;;;;;;5.75;2.25;;;12.80;96.70;;;;;;5027276;28;20077;-82
2020/12/05 10:18:21;;;;;;;6.90;2.47;;;12.70;96.70;;;;;;5044117;28;20182;-82
2020/12/05 10:20:48;;;;;;;5.88;2.25;;;12.80;96.70;;;;;;5043384;28;20039;-82
2020/12/05 10:23:16;;;;;;;6.45;2.60;;;12.80;96.70;;;;;;5043310;28;20040;-85
2020/12/05 10:25:44;;;;;;;7.30;2.28;;;12.80;96.70;;;;;;5024694;28;20044;-84
2020/12/05 10:28:12;;;;;;;7.15;2.45;;;12.80;96.70;;;;;;5030946;28;20251;-86
2020/12/05 10:30:39;;;;;;;8.10;2.38;;;12.90;96.70;;;;;;5021742;28;20115;-84
2020/12/05 10:33:06;;;;;;;6.30;2.72;;;12.90;96.70;;;;;;5019860;28;20033;-86
2020/12/05 10:35:34;;;;;;;6.45;2.90;;;13.00;96.70;;;;;;5021244;28;20099;-91
2020/12/05 10:38:01;;;;;;;7.95;3.72;;;13.00;96.70;;;;;;5021225;28;20056;-83
2020/12/05 10:40:29;;;;;;;9.18;3.30;;;13.10;96.70;;;;;;5005348;28;20087;-89
2020/12/05 10:42:57;;;;;;;19.80;11.32;;;13.10;96.70;;;;;;5021105;28;20042;-86
2020/12/05 10:45:25;;;;;;;8.75;4.32;;;13.20;96.70;;;;;;5006910;28;20124;-86
2020/12/05 10:47:56;;;;;;;8.88;3.00;;;13.20;96.70;;;;;;5021845;28;20042;-86
2020/12/05 10:50:23;;;;;;;6.43;2.67;;;13.30;96.70;;;;;;5037210;28;20037;-86
2020/12/05 10:52:51;;;;;;;7.07;2.88;;;13.30;96.70;;;;;;5031762;28;20324;-85
2020/12/05 10:55:19;;;;;;;8.32;2.60;;;13.30;96.70;;;;;;4997171;28;20056;-85
2020/12/05 10:57:51;;;;;;;9.80;3.33;;;13.30;96.70;;;;;;5019279;28;20045;-85
2020/12/05 11:00:20;;;;;;;8.30;3.38;;;13.30;96.70;;;;;;5004297;28;20038;-85
2020/12/05 11:02:48;;;;;;;9.77;3.78;;;13.30;96.70;;;;;;5002247;28;20598;-86
2020/12/05 11:05:15;;;;;;;8.90;5.38;;;13.30;96.70;;;;;;5019533;28;20073;-84
2020/12/05 11:07:43;;;;;;;11.60;3.70;;;13.30;96.70;;;;;;5019307;28;20041;-83
2020/12/05 11:10:10;;;;;;;9.90;3.63;;;13.40;96.70;;;;;;5004208;28;20395;-83
2020/12/05 11:12:38;;;;;;;10.57;3.85;;;13.50;96.70;;;;;;5019564;28;20140;-81
2020/12/05 11:15:05;;;;;;;10.82;4.43;;;13.60;96.70;;;;;;5019613;28;20076;-83
2020/12/05 11:17:34;;;;;;;14.75;4.15;;;13.70;96.70;;;;;;5015847;28;20566;-82
2020/12/05 11:20:02;;;;;;;10.52;3.08;;;13.80;96.70;;;;;;5006350;28;20033;-84
2020/12/05 11:22:29;;;;;;;12.45;3.40;;;13.90;96.70;;;;;;5018547;28;20049;-83
2020/12/05 11:24:57;;;;;;;10.95;3.53;;;13.90;96.70;;;;;;5004375;28;20037;-82
2020/12/05 11:27:24;;;;;;;11.00;3.40;;;14.00;96.70;;;;;;5026663;28;20080;-81
2020/12/05 11:29:52;;;;;;;7.18;2.75;;;14.20;96.70;;;;;;5040541;28;20037;-82
2020/12/05 11:32:20;;;;;;;12.43;2.95;;;14.30;96.70;;;;;;5041946;28;20546;-84
2020/12/05 11:34:48;;;;;;;8.13;2.63;;;14.30;96.70;;;;;;5008409;28;20127;-83
2020/12/05 11:37:16;;;;;;;14.02;2.90;;;14.40;96.70;;;;;;5041660;28;20037;-84
2020/12/05 11:39:43;;;;;;;12.57;3.13;;;14.50;96.70;;;;;;5044723;28;20041;-84
2020/12/05 11:42:12;;;;;;;16.38;3.13;;;14.50;96.70;;;;;;5027340;28;20051;-83
2020/12/05 11:44:39;;;;;;;9.48;2.58;;;14.60;96.70;;;;;;5027622;28;20126;-83
2020/12/05 11:47:07;;;;;;;13.40;2.58;;;14.70;96.70;;;;;;5045000;28;20103;-83
2020/12/05 11:49:34;;;;;;;8.48;2.85;;;14.80;96.70;;;;;;5045089;28;20037;-82
2020/12/05 11:52:03;;;;;;;7.60;1.92;;;14.80;96.70;;;;;;5021593;28;20429;-83
2020/12/05 11:54:30;;;;;;;5.78;1.75;;;14.90;96.70;;;;;;5057532;28;20110;-84
2020/12/05 11:56:58;;;;;;;10.63;2.58;;;15.10;96.70;;;;;;5044109;28;20580;-85
2020/12/05 11:59:25;;;;;;;9.60;2.15;;;15.20;96.70;;;;;;5060423;28;20067;-90
2020/12/05 12:01:53;;;;;;;9.30;2.15;;;15.30;96.70;;;;;;5041383;28;20041;-86
2020/12/05 12:04:21;;;;;;;8.07;2.40;;;15.40;96.70;;;;;;5044498;28;20060;-85
2020/12/05 12:06:48;;;;;;;14.35;2.03;;;15.50;96.70;;;;;;5044125;28;20491;-85
2020/12/05 12:09:17;;;;;;;13.05;2.13;;;15.70;96.70;;;;;;5044761;28;20044;-85
2020/12/05 12:11:44;;;;;;;9.73;3.10;;;15.70;96.70;;;;;;5045726;28;20044;-84
2020/12/05 12:14:12;;;;;;;8.82;2.15;;;15.70;96.70;;;;;;5057884;28;20107;-84
2020/12/05 12:16:40;;;;;;;12.38;1.92;;;15.70;96.70;;;;;;5022392;28;20049;-86
2020/12/05 12:19:07;;;;;;;10.52;2.88;;;15.70;96.70;;;;;;5013418;28;20790;-85
2020/12/05 12:21:35;;;;;;;5.85;2.10;;;15.60;96.70;;;;;;5071129;28;20499;-86
2020/12/05 12:24:02;;;;;;;12.35;1.95;;;15.60;96.70;;;;;;5028372;28;20033;-83
2020/12/05 12:26:31;;;;;;;9.73;2.80;;;15.70;96.70;;;;;;5038594;28;20124;-84
2020/12/05 12:28:58;;;;;;;13.60;3.75;;;15.70;96.70;;;;;;5045413;28;20141;-83
2020/12/05 12:31:26;;;;;;;14.75;4.25;;;15.70;96.70;;;;;;5057135;28;20045;-84
2020/12/05 12:33:53;;;;;;;12.20;2.47;;;15.60;96.70;;;;;;5042452;28;20134;-81
2020/12/05 12:36:23;;;;;;;12.07;2.42;;;15.60;96.70;;;;;;5041560;28;20489;-83
2020/12/05 12:38:50;;;;;;;12.90;2.33;;;15.60;96.70;;;;;;5043847;28;20048;-83
2020/12/05 12:41:19;;;;;;;10.13;2.80;;;15.70;96.70;;;;;;5042523;28;20335;-84
2020/12/05 12:43:51;;;;;;;10.38;2.25;;;15.70;96.70;;;;;;5043473;28;20040;-85
2020/12/05 12:46:22;;;;;;;9.38;2.95;;;15.70;96.70;;;;;;5025467;28;20045;-87
2020/12/05 12:48:50;;;;;;;15.80;3.03;;;15.70;96.70;;;;;;5044054;28;20045;-86
2020/12/05 12:51:22;;;;;;;14.18;3.08;;;15.70;96.70;;;;;;5042046;28;20044;-85
2020/12/05 12:53:50;;;;;;;14.57;4.70;;;15.70;96.70;;;;;;5043972;28;20040;-84
2020/12/05 12:56:20;;;;;;;13.65;3.17;;;15.80;96.70;;;;;;5024620;28;20036;-82
2020/12/05 12:58:50;;;;;;;14.50;2.40;;;15.80;96.70;;;;;;5059881;28;20080;-82
2020/12/05 13:01:18;;;;;;;13.52;2.45;;;15.90;96.70;;;;;;5042150;28;20748;-80
2020/12/05 13:03:46;;;;;;;10.00;2.70;;;16.10;96.70;;;;;;5040366;28;20037;-82
2020/12/05 13:06:15;;;;;;;12.38;2.88;;;16.10;96.70;;;;;;5023116;28;20045;-83
2020/12/05 13:08:43;;;;;;;11.88;2.60;;;16.10;96.70;;;;;;5070872;28;20147;-84
2020/12/05 13:11:12;;;;;;;10.35;2.30;;;16.10;96.70;;;;;;5057262;28;20041;-85